Aviation Digital Data Service (ADDS)

Output produced by METARs form (1200 UTC 24 February 2018)
found at http://www.aviationweather.gov/adds/metars/
 
TAF SABE 241100Z 2412/2512 14010KT 9999 SCT020 TX26/2418Z TN18/2509Z 
     BECMG 2416/2418 09015KT 9999 BKN035 
     BECMG 2507/2510 09010KT CAVOK
       
TAF SACO 241100Z 2412/2512 23005KT 7000 RA BKN030 FEW040CB OVC060 TX29/2418Z TN17/2509Z 
     BECMG 2414/2417 05005KT 9999 SCT030 FEW040CB
       
TAF SAAR 241100Z 2412/2512 09010KT 9999 BKN040 TX30/2418Z TN16/2509Z 
     BECMG 2418/2420 12010KT CAVOK 
     BECMG 2500/2502 09010KT 
     BECMG 2508/2510 09005KT 7000 NSC
       
TAF SABE 241100Z 2412/2512 14010KT 9999 SCT020 TX26/2418Z TN18/2509Z 
     BECMG 2416/2418 09015KT 9999 BKN035 
     BECMG 2507/2510 09010KT CAVOK
       
TAF SACO 241100Z 2412/2512 23005KT 7000 RA BKN030 FEW040CB OVC060 TX29/2418Z TN17/2509Z 
     BECMG 2414/2417 05005KT 9999 SCT030 FEW040CB
       
TAF SADF 241100Z 2412/2512 16005KT 9999 SCT020 TX27/2418Z TN19/2510Z 
     BECMG 2413/2415 09010KT 
     BECMG 2416/2418 SCT020 FEW040TCU SCT100 
     BECMG 2504/2506 CAVOK
       
TAF SAEZ 241100Z 2412/2512 14005KT CAVOK TX29/2418Z TN15/2508Z 
     BECMG 2415/2418 SCT030 FEW040TCU 
     BECMG 2419/2421 09010KT CAVOK 
     BECMG 2505/2507 14005KT 5000 BR 
     BECMG 2510/2512 CAVOK
       
TAF SAME 241100Z 2412/2512 09005KT 9999 SCT040 TX24/2420Z TN16/2510Z
       
TAF SANR 241100Z 2412/2512 14010KT 9999 BKN030 OVC040 TX33/2418Z TN20/2510Z 
     BECMG 2414/2417 07005KT 9999 SCT035 FEW040CB
       
TAF SANT 241100Z 2412/2512 23005KT 5000 BR OVC006 TX30/2418Z TN21/2510Z 
     BECMG 2414/2417 09005KT 9999 BKN030 FEW040CB
       
TAF SARE 241100Z 2412/2512 07005KT CAVOK TX33/2418Z TN19/2509Z 
     TEMPO 2416/2420 9999 SCT030
       
TAF SARF 241100Z 2412/2512 07005KT CAVOK TX30/2418Z TN20/2509Z 
     TEMPO 2416/2420 9999 SCT030
       
TAF SARI 241100Z 2412/2512 07005KT CAVOK TX31/2418Z TN18/2509Z 
     BECMG 2413/2415 9999 SCT030 
     PROB30 2417/2422 BKN030 FEW040TCU
       
TAF SARP 241100Z 2412/2512 07005KT CAVOK TX32/2418Z TN20/2509Z 
     TEMPO 2416/2420 9999 SCT030
       
TAF SASA 241100Z 2412/2512 07005KT 7000 RA BKN018 OVC050 TX27/2418Z TN18/2510Z 
     BECMG 2414/2417 07010KT 9999 BKN020 FEW030TCU 
     BECMG 2421/2500 05010KT 5000 TSRA BKN020 FEW030CB
       
TAF SASJ 241100Z 2412/2512 36005KT 9999 SCT020 BKN060 TX29/2418Z TN20/2510Z 
     BECMG 2414/2417 07010KT 9999 SCT025 FEW040CB
       
TAF SAVC 241100Z 2412/2512 32010KT CAVOK TX35/2419Z TN20/2511Z 
     PROB30 
     TEMPO 2417/2421 07015KT 9999 SCT030 
     BECMG 2423/2501 27015KT CAVOK
       
TAF SAWE 241100Z 2412/2512 32010KT 9999 SCT035 BKN070 TX18/2419Z TN08/2511Z 
     BECMG 2415/2417 29020G45KT 9000 SHRA SCT030 OVC050 
     BECMG 2501/2503 29015G30KT 9999 NSW SCT030 BKN070
       
TAF SAWG 241100Z 2412/2512 VRB05KT CAVOK TX26/2419Z TN12/2511Z 
     BECMG 2413/2415 27015KT 
     PROB40 
     TEMPO 2418/2424 -SHRA SCT030 OVC050 
     BECMG 2501/2503 27020G35KT -DZ SCT030 OVC060
       
TAF SAWH 232300Z 2400/2424 32005KT 9999 FEW040 SCT100 BKN200 TX18/2419Z TN08/2412Z 
     BECMG 2407/2409 32025G40KT 
     BECMG 2416/2418 -SHRA SCT030 BKN070 BKN090
       
TAF SAZM 241100Z 2412/2512 20005KT 9999 SCT020 TX23/2418Z TN13/2510Z 
     BECMG 2418/2420 16010KT 
     BECMG 2500/2502 09010KT CAVOK 
     BECMG 2506/2508 34005KT 5000 BR NSC 
     PROB40 2509/2511 0900 BCFG FEW010 
       
TAF SAZN 241100Z 2412/2512 09003KT 9999 SCT030 SCT100 TX28/2418Z TN17/2509Z 
     BECMG 2414/2416 02010KT CAVOK 
     BECMG 2504/2506 09005KT 
       
TAF SAZS 241100Z 2412/2512 02010KT 9999 FEW015 BKN030 TX23/2418Z TN09/2509Z 
     BECMG 2414/2415 32005KT CAVOK 
     BECMG 2502/2504 VRB03KT 
     BECMG 2508/2510 02005KT 4000 BR FEW015 
       
TAF SARI 241100Z 2412/2512 07005KT CAVOK TX31/2418Z TN18/2509Z 
     BECMG 2413/2415 9999 SCT030 
     PROB30 2417/2422 BKN030 FEW040TCU
       
TAF SAVC 241100Z 2412/2512 32010KT CAVOK TX35/2419Z TN20/2511Z 
     PROB30 
     TEMPO 2417/2421 07015KT 9999 SCT030 
     BECMG 2423/2501 27015KT CAVOK
       
TAF SAME 241100Z 2412/2512 09005KT 9999 SCT040 TX24/2420Z TN16/2510Z
       
TAF SARF 241100Z 2412/2512 07005KT CAVOK TX30/2418Z TN20/2509Z 
     TEMPO 2416/2420 9999 SCT030
       
TAF SASJ 241100Z 2412/2512 36005KT 9999 SCT020 BKN060 TX29/2418Z TN20/2510Z 
     BECMG 2414/2417 07010KT 9999 SCT025 FEW040CB
       
TAF SASA 241100Z 2412/2512 07005KT 7000 RA BKN018 OVC050 TX27/2418Z TN18/2510Z 
     BECMG 2414/2417 07010KT 9999 BKN020 FEW030TCU 
     BECMG 2421/2500 05010KT 5000 TSRA BKN020 FEW030CB
       
TAF SAZM 241100Z 2412/2512 20005KT 9999 SCT020 TX23/2418Z TN13/2510Z 
     BECMG 2418/2420 16010KT 
     BECMG 2500/2502 09010KT CAVOK 
     BECMG 2506/2508 34005KT 5000 BR NSC 
     PROB40 2509/2511 0900 BCFG FEW010 
       
TAF SAEZ 241100Z 2412/2512 14005KT CAVOK TX29/2418Z TN15/2508Z 
     BECMG 2415/2418 SCT030 FEW040TCU 
     BECMG 2419/2421 09010KT CAVOK 
     BECMG 2505/2507 14005KT 5000 BR 
     BECMG 2510/2512 CAVOK
       
TAF SARP 241100Z 2412/2512 07005KT CAVOK TX32/2418Z TN20/2509Z 
     TEMPO 2416/2420 9999 SCT030
       
TAF SAZN 241100Z 2412/2512 09003KT 9999 SCT030 SCT100 TX28/2418Z TN17/2509Z 
     BECMG 2414/2416 02010KT CAVOK 
     BECMG 2504/2506 09005KT 
       
TAF SARE 241100Z 2412/2512 07005KT CAVOK TX33/2418Z TN19/2509Z 
     TEMPO 2416/2420 9999 SCT030
       
TAF SAWG 241100Z 2412/2512 VRB05KT CAVOK TX26/2419Z TN12/2511Z 
     BECMG 2413/2415 27015KT 
     PROB40 
     TEMPO 2418/2424 -SHRA SCT030 OVC050 
     BECMG 2501/2503 27020G35KT -DZ SCT030 OVC060
       
TAF SAWE 241100Z 2412/2512 32010KT 9999 SCT035 BKN070 TX18/2419Z TN08/2511Z 
     BECMG 2415/2417 29020G45KT 9000 SHRA SCT030 OVC050 
     BECMG 2501/2503 29015G30KT 9999 NSW SCT030 BKN070
       
TAF SAAR 241100Z 2412/2512 09010KT 9999 BKN040 TX30/2418Z TN16/2509Z 
     BECMG 2418/2420 12010KT CAVOK 
     BECMG 2500/2502 09010KT 
     BECMG 2508/2510 09005KT 7000 NSC
       
TAF SAAR 241100Z 2412/2512 09010KT 9999 BKN040 TX30/2418Z TN16/2509Z 
     BECMG 2418/2420 12010KT CAVOK 
     BECMG 2500/2502 09010KT 
     BECMG 2508/2510 09005KT 7000 NSC
       
TAF SABE 241100Z 2412/2512 14010KT 9999 SCT020 TX26/2418Z TN18/2509Z 
     BECMG 2416/2418 09015KT 9999 BKN035 
     BECMG 2507/2510 09010KT CAVOK
       
TAF SACO 241100Z 2412/2512 23005KT 7000 RA BKN030 FEW040CB OVC060 TX29/2418Z TN17/2509Z 
     BECMG 2414/2417 05005KT 9999 SCT030 FEW040CB
       
TAF SADF 240500Z 2406/2506 09005KT 9999 SCT020 TX26/2418Z TN19/2409Z 
     BECMG 2407/2409 BKN020 
     BECMG 2409/2411 SCT030 
     BECMG 2417/2419 09015KT CAVOK
       
TAF SAEZ 241100Z 2412/2512 14005KT CAVOK TX29/2418Z TN15/2508Z 
     BECMG 2415/2418 SCT030 FEW040TCU 
     BECMG 2419/2421 09010KT CAVOK 
     BECMG 2505/2507 14005KT 5000 BR 
     BECMG 2510/2512 CAVOK
       
TAF SAME 241100Z 2412/2512 09005KT 9999 SCT040 TX24/2420Z TN16/2510Z
       
TAF SANR 241100Z 2412/2512 14010KT 9999 BKN030 OVC040 TX33/2418Z TN20/2510Z 
     BECMG 2414/2417 07005KT 9999 SCT035 FEW040CB
       
TAF SANT 241100Z 2412/2512 23005KT 5000 BR OVC006 TX30/2418Z TN21/2510Z 
     BECMG 2414/2417 09005KT 9999 BKN030 FEW040CB
       
TAF SARE 241100Z 2412/2512 07005KT CAVOK TX33/2418Z TN19/2509Z 
     TEMPO 2416/2420 9999 SCT030
       
TAF SARF 241100Z 2412/2512 07005KT CAVOK TX30/2418Z TN20/2509Z 
     TEMPO 2416/2420 9999 SCT030
       
TAF SARI 241100Z 2412/2512 07005KT CAVOK TX31/2418Z TN18/2509Z 
     BECMG 2413/2415 9999 SCT030 
     PROB30 2417/2422 BKN030 FEW040TCU
       
TAF SARP 241100Z 2412/2512 07005KT CAVOK TX32/2418Z TN20/2509Z 
     TEMPO 2416/2420 9999 SCT030
       
TAF SASA 241100Z 2412/2512 07005KT 7000 RA BKN018 OVC050 TX27/2418Z TN18/2510Z 
     BECMG 2414/2417 07010KT 9999 BKN020 FEW030TCU 
     BECMG 2421/2500 05010KT 5000 TSRA BKN020 FEW030CB
       
TAF SASJ 241100Z 2412/2512 36005KT 9999 SCT020 BKN060 TX29/2418Z TN20/2510Z 
     BECMG 2414/2417 07010KT 9999 SCT025 FEW040CB
       
TAF SAVC 241100Z 2412/2512 32010KT CAVOK TX35/2419Z TN20/2511Z 
     PROB30 
     TEMPO 2417/2421 07015KT 9999 SCT030 
     BECMG 2423/2501 27015KT CAVOK
       
TAF SAWE 241100Z 2412/2512 32010KT 9999 SCT035 BKN070 TX18/2419Z TN08/2511Z 
     BECMG 2415/2417 29020G45KT 9000 SHRA SCT030 OVC050 
     BECMG 2501/2503 29015G30KT 9999 NSW SCT030 BKN070
       
TAF SAWG 241100Z 2412/2512 VRB05KT CAVOK TX26/2419Z TN12/2511Z 
     BECMG 2413/2415 27015KT 
     PROB40 
     TEMPO 2418/2424 -SHRA SCT030 OVC050 
     BECMG 2501/2503 27020G35KT -DZ SCT030 OVC060
       
TAF SAWH 241100Z 2412/2512 36015KT 9999 SCT035 BKN060 TX20/2419Z TN06/2511Z 
     TEMPO 2414/2420 32015G30KT 9000 SHRA SCT030 OVC060 
     BECMG 2421/2423 36015KT
       
TAF SAZM 241100Z 2412/2512 20005KT 9999 SCT020 TX23/2418Z TN13/2510Z 
     BECMG 2418/2420 16010KT 
     BECMG 2500/2502 09010KT CAVOK 
     BECMG 2506/2508 34005KT 5000 BR NSC 
     PROB40 2509/2511 0900 BCFG FEW010 
       
TAF SAZN 241100Z 2412/2512 09003KT 9999 SCT030 SCT100 TX28/2418Z TN17/2509Z 
     BECMG 2414/2416 02010KT CAVOK 
     BECMG 2504/2506 09005KT 
       
TAF SAZS 241100Z 2412/2512 02010KT 9999 FEW015 BKN030 TX23/2418Z TN09/2509Z 
     BECMG 2414/2415 32005KT CAVOK 
     BECMG 2502/2504 VRB03KT 
     BECMG 2508/2510 02005KT 4000 BR FEW015 
       
TAF SASA 241100Z 2412/2512 07005KT 7000 RA BKN018 OVC050 TX27/2418Z TN18/2510Z 
     BECMG 2414/2417 07010KT 9999 BKN020 FEW030TCU 
     BECMG 2421/2500 05010KT 5000 TSRA BKN020 FEW030CB
       
TAF SAZS 241100Z 2412/2512 02010KT 9999 FEW015 BKN030 TX23/2418Z TN09/2509Z 
     BECMG 2414/2415 32005KT CAVOK 
     BECMG 2502/2504 VRB03KT 
     BECMG 2508/2510 02005KT 4000 BR FEW015 
       
TAF SADF 241100Z 2412/2512 16005KT 9999 SCT020 TX27/2418Z TN19/2510Z 
     BECMG 2413/2415 09010KT 
     BECMG 2416/2418 SCT020 FEW040TCU SCT100 
     BECMG 2504/2506 CAVOK
       
TAF SAAR 241100Z 2412/2512 09010KT 9999 BKN040 TX30/2418Z TN16/2509Z 
     BECMG 2418/2420 12010KT CAVOK 
     BECMG 2500/2502 09010KT 
     BECMG 2508/2510 09005KT 7000 NSC
       
TAF SABE 241100Z 2412/2512 14010KT 9999 SCT020 TX26/2418Z TN18/2509Z 
     BECMG 2416/2418 09015KT 9999 BKN035 
     BECMG 2507/2510 09010KT CAVOK
       
TAF SACO 241100Z 2412/2512 23005KT 7000 RA BKN030 FEW040CB OVC060 TX29/2418Z TN17/2509Z 
     BECMG 2414/2417 05005KT 9999 SCT030 FEW040CB
       
TAF SADF 241100Z 2412/2512 16005KT 9999 SCT020 TX27/2418Z TN19/2510Z 
     BECMG 2413/2415 09010KT 
     BECMG 2416/2418 SCT020 FEW040TCU SCT100 
     BECMG 2504/2506 CAVOK
       
TAF SAEZ 241100Z 2412/2512 14005KT CAVOK TX29/2418Z TN15/2508Z 
     BECMG 2415/2418 SCT030 FEW040TCU 
     BECMG 2419/2421 09010KT CAVOK 
     BECMG 2505/2507 14005KT 5000 BR 
     BECMG 2510/2512 CAVOK
       
TAF SAME 241100Z 2412/2512 09005KT 9999 SCT040 TX24/2420Z TN16/2510Z
       
TAF SANR 241100Z 2412/2512 14010KT 9999 BKN030 OVC040 TX33/2418Z TN20/2510Z 
     BECMG 2414/2417 07005KT 9999 SCT035 FEW040CB
       
TAF SANT 241100Z 2412/2512 23005KT 5000 BR OVC006 TX30/2418Z TN21/2510Z 
     BECMG 2414/2417 09005KT 9999 BKN030 FEW040CB
       
TAF SARE 241100Z 2412/2512 07005KT CAVOK TX33/2418Z TN19/2509Z 
     TEMPO 2416/2420 9999 SCT030
       
TAF SARF 241100Z 2412/2512 07005KT CAVOK TX30/2418Z TN20/2509Z 
     TEMPO 2416/2420 9999 SCT030
       
TAF SARI 241100Z 2412/2512 07005KT CAVOK TX31/2418Z TN18/2509Z 
     BECMG 2413/2415 9999 SCT030 
     PROB30 2417/2422 BKN030 FEW040TCU
       
TAF SARP 241100Z 2412/2512 07005KT CAVOK TX32/2418Z TN20/2509Z 
     TEMPO 2416/2420 9999 SCT030
       
TAF SASA 241100Z 2412/2512 07005KT 7000 RA BKN018 OVC050 TX27/2418Z TN18/2510Z 
     BECMG 2414/2417 07010KT 9999 BKN020 FEW030TCU 
     BECMG 2421/2500 05010KT 5000 TSRA BKN020 FEW030CB
       
TAF SASJ 241100Z 2412/2512 36005KT 9999 SCT020 BKN060 TX29/2418Z TN20/2510Z 
     BECMG 2414/2417 07010KT 9999 SCT025 FEW040CB
       
TAF SAVC 241100Z 2412/2512 32010KT CAVOK TX35/2419Z TN20/2511Z 
     PROB30 
     TEMPO 2417/2421 07015KT 9999 SCT030 
     BECMG 2423/2501 27015KT CAVOK
       
TAF SAWE 241100Z 2412/2512 32010KT 9999 SCT035 BKN070 TX18/2419Z TN08/2511Z 
     BECMG 2415/2417 29020G45KT 9000 SHRA SCT030 OVC050 
     BECMG 2501/2503 29015G30KT 9999 NSW SCT030 BKN070
       
TAF SAWG 241100Z 2412/2512 VRB05KT CAVOK TX26/2419Z TN12/2511Z 
     BECMG 2413/2415 27015KT 
     PROB40 
     TEMPO 2418/2424 -SHRA SCT030 OVC050 
     BECMG 2501/2503 27020G35KT -DZ SCT030 OVC060
       
TAF SAWH 241100Z 2412/2512 36015KT 9999 SCT035 BKN060 TX20/2419Z TN06/2511Z 
     TEMPO 2414/2420 32015G30KT 9000 SHRA SCT030 OVC060 
     BECMG 2421/2423 36015KT
       
TAF SAZM 241100Z 2412/2512 20005KT 9999 SCT020 TX23/2418Z TN13/2510Z 
     BECMG 2418/2420 16010KT 
     BECMG 2500/2502 09010KT CAVOK 
     BECMG 2506/2508 34005KT 5000 BR NSC 
     PROB40 2509/2511 0900 BCFG FEW010 
       
TAF SAZN 241100Z 2412/2512 09003KT 9999 SCT030 SCT100 TX28/2418Z TN17/2509Z 
     BECMG 2414/2416 02010KT CAVOK 
     BECMG 2504/2506 09005KT 
       
TAF SAZS 241100Z 2412/2512 02010KT 9999 FEW015 BKN030 TX23/2418Z TN09/2509Z 
     BECMG 2414/2415 32005KT CAVOK 
     BECMG 2502/2504 VRB03KT 
     BECMG 2508/2510 02005KT 4000 BR FEW015 
       
TAF SANT 241100Z 2412/2512 23005KT 5000 BR OVC006 TX30/2418Z TN21/2510Z 
     BECMG 2414/2417 09005KT 9999 BKN030 FEW040CB
       
TAF SAWH 241100Z 2412/2512 36015KT 9999 SCT035 BKN060 TX20/2419Z TN06/2511Z 
     TEMPO 2414/2420 32015G30KT 9000 SHRA SCT030 OVC060 
     BECMG 2421/2423 36015KT